createdAt,value
2019-05-20T00:00:07.234Z,8.50
2019-05-20T00:01:07.227Z,7.60
2019-05-20T00:02:21.667Z,7.50
2019-05-20T00:03:08.218Z,7.00
2019-05-20T00:04:07.189Z,7.30
2019-05-20T00:05:07.189Z,7.20
2019-05-20T00:06:07.237Z,8.00
2019-05-20T00:07:07.166Z,9.40
2019-05-20T00:08:07.152Z,10.00
2019-05-20T00:09:07.138Z,9.60
2019-05-20T00:10:07.127Z,10.10
2019-05-20T00:11:07.477Z,11.40
2019-05-20T00:12:07.104Z,11.70
2019-05-20T00:13:07.092Z,11.90
2019-05-20T00:14:07.085Z,11.60
2019-05-20T00:15:07.076Z,13.10
2019-05-20T00:16:07.064Z,14.60
2019-05-20T00:17:07.053Z,14.60
2019-05-20T00:18:07.038Z,12.00
2019-05-20T00:19:07.030Z,10.40
2019-05-20T00:20:07.016Z,11.00
2019-05-20T00:21:07.002Z,11.80
2019-05-20T00:22:06.998Z,10.30
2019-05-20T00:23:06.984Z,10.10
2019-05-20T00:24:06.973Z,11.20
2019-05-20T00:25:06.966Z,10.00
2019-05-20T00:26:06.951Z,8.60
2019-05-20T00:27:06.943Z,7.70
2019-05-20T00:28:06.928Z,8.00
2019-05-20T00:29:06.916Z,9.60
2019-05-20T00:30:06.906Z,7.80
2019-05-20T00:31:06.909Z,9.30
2019-05-20T00:32:06.883Z,8.40
2019-05-20T00:33:06.947Z,9.20
2019-05-20T00:34:06.866Z,9.40
2019-05-20T00:35:06.863Z,9.10
2019-05-20T00:36:06.851Z,9.50
2019-05-20T00:37:06.832Z,7.60
2019-05-20T00:38:06.819Z,8.90
2019-05-20T00:39:06.807Z,8.80
2019-05-20T00:40:06.800Z,9.10
2019-05-20T00:41:06.785Z,8.20
2019-05-20T00:42:06.780Z,7.80
2019-05-20T00:43:06.774Z,7.80
2019-05-20T00:44:06.752Z,5.60
2019-05-20T00:45:06.745Z,7.00
2019-05-20T00:46:06.737Z,5.80
2019-05-20T00:47:06.720Z,6.70
2019-05-20T00:48:06.709Z,6.50
2019-05-20T00:49:06.706Z,6.10
2019-05-20T00:50:06.694Z,7.30
2019-05-20T00:51:06.674Z,7.70
2019-05-20T00:52:06.665Z,8.10
2019-05-20T00:53:06.675Z,8.10
2019-05-20T00:54:06.642Z,7.00
2019-05-20T00:55:06.630Z,7.90
2019-05-20T00:56:06.622Z,7.60
2019-05-20T00:57:06.611Z,6.60
2019-05-20T00:58:06.599Z,6.20
2019-05-20T00:59:06.589Z,6.50
2019-05-20T01:00:06.642Z,6.90
2019-05-20T01:01:06.564Z,7.70
2019-05-20T01:02:06.554Z,6.90
2019-05-20T01:03:06.550Z,5.80
2019-05-20T01:04:06.537Z,6.00
2019-05-20T01:05:06.523Z,6.40
2019-05-20T01:06:06.511Z,5.10
2019-05-20T01:07:06.507Z,4.10
2019-05-20T01:08:06.489Z,4.30
2019-05-20T01:09:06.480Z,5.60
2019-05-20T01:10:06.469Z,3.50
2019-05-20T01:11:06.458Z,4.00
2019-05-20T01:12:06.444Z,4.60
2019-05-20T01:13:06.439Z,4.30
2019-05-20T01:14:06.431Z,5.60
2019-05-20T01:15:06.416Z,5.20
2019-05-20T01:16:06.409Z,5.30
2019-05-20T01:17:06.399Z,4.70
2019-05-20T01:18:06.381Z,3.90
2019-05-20T01:19:06.374Z,4.30
2019-05-20T01:20:06.359Z,5.50
2019-05-20T01:21:06.356Z,5.40
2019-05-20T01:22:06.337Z,4.30
2019-05-20T01:23:06.331Z,5.60
2019-05-20T01:24:06.318Z,6.20
2019-05-20T01:25:06.307Z,4.70
2019-05-20T01:26:06.293Z,5.50
2019-05-20T01:27:06.282Z,4.00
2019-05-20T01:28:06.267Z,2.80
2019-05-20T01:29:06.259Z,4.00
2019-05-20T01:30:06.260Z,3.90
2019-05-20T01:31:06.245Z,4.00
2019-05-20T01:32:06.228Z,3.60
2019-05-20T01:33:13.965Z,4.60
2019-05-20T01:34:07.226Z,4.60
2019-05-20T01:35:06.195Z,4.20
2019-05-20T01:36:06.186Z,5.10
2019-05-20T01:37:06.179Z,3.80
2019-05-20T01:38:06.160Z,3.30
2019-05-20T01:39:06.149Z,2.80
2019-05-20T01:40:06.144Z,2.60
2019-05-20T01:41:06.126Z,3.70
2019-05-20T01:42:06.116Z,4.30
2019-05-20T01:43:06.108Z,4.70
2019-05-20T01:44:06.094Z,5.40
2019-05-20T01:45:06.087Z,4.60
2019-05-20T01:46:06.071Z,3.30
2019-05-20T01:47:06.063Z,3.50
2019-05-20T01:48:06.049Z,3.40
2019-05-20T01:49:06.045Z,3.50
2019-05-20T01:50:06.033Z,3.20
2019-05-20T01:51:06.018Z,3.60
2019-05-20T01:52:06.007Z,4.20
2019-05-20T01:53:05.996Z,3.50
2019-05-20T01:54:05.986Z,4.60
2019-05-20T01:55:05.977Z,3.40
2019-05-20T01:56:05.966Z,4.10
2019-05-20T01:57:05.949Z,4.00
2019-05-20T01:58:05.939Z,3.90
2019-05-20T01:59:05.935Z,4.00
2019-05-20T02:00:05.921Z,4.20
2019-05-20T02:01:05.908Z,4.00
2019-05-20T02:02:05.899Z,4.00
2019-05-20T02:03:05.888Z,4.00
2019-05-20T02:04:05.877Z,4.10
2019-05-20T02:05:05.868Z,3.60
2019-05-20T02:06:05.861Z,4.50
2019-05-20T02:07:05.892Z,3.70
2019-05-20T02:08:05.837Z,3.90
2019-05-20T02:09:05.827Z,3.60
2019-05-20T02:10:05.831Z,3.80
2019-05-20T02:11:05.801Z,3.20
2019-05-20T02:12:05.788Z,3.20
2019-05-20T02:13:05.786Z,3.20
2019-05-20T02:14:05.763Z,4.10
2019-05-20T02:15:05.756Z,3.60
2019-05-20T02:16:05.747Z,4.10
2019-05-20T02:17:05.736Z,2.80
2019-05-20T02:18:05.723Z,4.00
2019-05-20T02:19:05.714Z,3.40
2019-05-20T02:20:05.717Z,4.40
2019-05-20T02:21:05.697Z,4.00
2019-05-20T02:22:05.683Z,3.60
2019-05-20T02:23:05.672Z,3.40
2019-05-20T02:24:05.660Z,3.90
2019-05-20T02:25:05.647Z,3.80
2019-05-20T02:26:05.654Z,2.80
2019-05-20T02:27:05.631Z,3.50
2019-05-20T02:28:05.612Z,3.40
2019-05-20T02:29:05.603Z,3.20
2019-05-20T02:30:05.596Z,3.80
2019-05-20T02:31:05.593Z,4.20
2019-05-20T02:32:05.570Z,4.20
2019-05-20T02:33:05.563Z,4.10
2019-05-20T02:34:05.553Z,3.60
2019-05-20T02:35:05.542Z,3.80
2019-05-20T02:36:05.527Z,3.30
2019-05-20T02:37:05.521Z,4.00
2019-05-20T02:38:05.503Z,4.50
2019-05-20T02:39:05.497Z,3.00
2019-05-20T02:40:05.485Z,4.20
2019-05-20T02:41:05.483Z,3.50
2019-05-20T02:42:05.467Z,3.20
2019-05-20T02:43:05.452Z,3.30
2019-05-20T02:44:05.526Z,3.30
2019-05-20T02:45:05.433Z,3.50
2019-05-20T02:46:05.425Z,3.40
2019-05-20T02:47:05.412Z,3.80
2019-05-20T02:48:05.399Z,3.20
2019-05-20T02:49:05.394Z,3.60
2019-05-20T02:50:05.376Z,3.10
2019-05-20T02:51:05.367Z,3.20
2019-05-20T02:52:05.354Z,2.60
2019-05-20T02:53:05.346Z,2.80
2019-05-20T02:54:05.344Z,2.90
2019-05-20T02:55:05.325Z,2.50
2019-05-20T02:56:05.318Z,3.10
2019-05-20T02:57:05.305Z,2.90
2019-05-20T02:58:05.293Z,3.20
2019-05-20T02:59:05.278Z,2.50
2019-05-20T03:00:05.270Z,2.90
2019-05-20T03:01:05.261Z,3.40
2019-05-20T03:02:05.258Z,3.20
2019-05-20T03:03:05.242Z,3.30
2019-05-20T03:04:12.041Z,2.90
2019-05-20T03:05:06.212Z,2.80
2019-05-20T03:06:05.207Z,3.10
2019-05-20T03:07:05.190Z,3.40
2019-05-20T03:08:05.187Z,2.80
2019-05-20T03:09:05.169Z,3.00
2019-05-20T03:10:05.159Z,3.60
2019-05-20T03:11:05.149Z,2.90
2019-05-20T03:12:05.138Z,2.70
2019-05-20T03:13:05.129Z,2.80
2019-05-20T03:14:05.149Z,3.00
2019-05-20T03:15:05.101Z,3.20
2019-05-20T03:16:05.103Z,3.00
2019-05-20T03:17:05.093Z,2.80
2019-05-20T03:18:05.071Z,2.90
2019-05-20T03:19:05.064Z,2.70
2019-05-20T03:20:05.049Z,3.60
2019-05-20T03:21:05.042Z,2.60
2019-05-20T03:22:05.035Z,2.60
2019-05-20T03:23:05.016Z,2.50
2019-05-20T03:24:05.006Z,3.00
2019-05-20T03:25:04.998Z,3.10
2019-05-20T03:26:04.986Z,2.90
2019-05-20T03:27:04.974Z,2.70
2019-05-20T03:28:04.962Z,3.20
2019-05-20T03:29:04.954Z,2.20
2019-05-20T03:30:04.950Z,2.80
2019-05-20T03:31:04.937Z,2.70
2019-05-20T03:32:04.936Z,2.40
2019-05-20T03:33:04.924Z,2.40
2019-05-20T03:34:04.899Z,3.00
2019-05-20T03:35:04.892Z,3.10
2019-05-20T03:36:04.885Z,2.60
2019-05-20T03:37:04.866Z,2.90
2019-05-20T03:38:04.856Z,3.00
2019-05-20T03:39:04.852Z,3.00
2019-05-20T03:40:04.831Z,2.90
2019-05-20T03:41:04.874Z,2.20
2019-05-20T03:42:04.813Z,2.50
2019-05-20T03:43:04.800Z,2.40
2019-05-20T03:44:04.786Z,2.80
2019-05-20T03:45:04.777Z,3.00
2019-05-20T03:46:04.766Z,2.60
2019-05-20T03:47:04.759Z,3.10
2019-05-20T03:48:04.749Z,2.90
2019-05-20T03:49:04.736Z,2.70
2019-05-20T03:50:04.739Z,2.30
2019-05-20T03:51:04.713Z,3.00
2019-05-20T03:52:04.707Z,3.10
2019-05-20T03:53:04.688Z,3.40
2019-05-20T03:54:04.697Z,3.10
2019-05-20T03:55:04.672Z,3.20
2019-05-20T03:56:04.664Z,3.30
2019-05-20T03:57:04.646Z,2.90
2019-05-20T03:58:04.638Z,3.70
2019-05-20T03:59:04.624Z,3.90
2019-05-20T04:00:04.628Z,4.40
2019-05-20T04:01:04.609Z,3.40
2019-05-20T04:02:04.603Z,3.30
2019-05-20T04:03:04.582Z,3.30
2019-05-20T04:04:04.574Z,4.00
2019-05-20T04:05:04.577Z,3.20
2019-05-20T04:06:04.548Z,3.50
2019-05-20T04:07:04.606Z,2.80
2019-05-20T04:08:04.572Z,3.80
2019-05-20T04:09:04.516Z,4.00
2019-05-20T04:10:04.525Z,4.20
2019-05-20T04:11:04.506Z,2.80
2019-05-20T04:12:04.486Z,2.60
2019-05-20T04:13:04.480Z,3.10
2019-05-20T04:14:04.465Z,3.30
2019-05-20T04:15:04.448Z,2.90
2019-05-20T04:16:04.440Z,3.30
2019-05-20T04:17:04.429Z,3.50
2019-05-20T04:18:04.422Z,2.90
2019-05-20T04:19:04.409Z,2.90
2019-05-20T04:20:04.404Z,3.00
2019-05-20T04:21:04.390Z,2.90
2019-05-20T04:22:04.385Z,3.10
2019-05-20T04:23:04.366Z,3.10
2019-05-20T04:24:04.356Z,3.90
2019-05-20T04:25:04.349Z,3.10
2019-05-20T04:26:04.339Z,4.20
2019-05-20T04:27:04.328Z,3.90
2019-05-20T04:28:04.335Z,3.00
2019-05-20T04:29:04.297Z,2.90
2019-05-20T04:30:04.290Z,2.60
2019-05-20T04:31:04.279Z,3.50
2019-05-20T04:32:04.272Z,3.70
2019-05-20T04:33:04.270Z,3.50
2019-05-20T04:34:04.248Z,3.20
2019-05-20T04:35:20.401Z,2.00
2019-05-20T04:36:05.224Z,2.90
2019-05-20T04:37:04.213Z,2.90
2019-05-20T04:38:04.202Z,3.10
2019-05-20T04:39:04.190Z,2.40
2019-05-20T04:40:04.180Z,2.30
2019-05-20T04:41:04.172Z,2.20
2019-05-20T04:42:06.638Z,2.70
2019-05-20T04:43:04.148Z,2.30
2019-05-20T04:44:04.140Z,2.70
2019-05-20T04:45:04.126Z,2.20
2019-05-20T04:46:04.112Z,2.30
2019-05-20T04:47:04.103Z,2.40
2019-05-20T04:48:04.095Z,2.50
2019-05-20T04:49:04.081Z,2.40
2019-05-20T04:50:04.078Z,1.90
2019-05-20T04:51:04.057Z,2.40
2019-05-20T04:52:04.056Z,2.00
2019-05-20T04:53:04.039Z,2.40
2019-05-20T04:54:04.027Z,2.40
2019-05-20T04:55:04.020Z,2.60
2019-05-20T04:56:04.006Z,1.90
2019-05-20T04:57:03.997Z,2.70
2019-05-20T04:58:04.004Z,2.50
2019-05-20T04:59:03.971Z,2.00
2019-05-20T05:00:03.964Z,2.60
2019-05-20T05:01:03.997Z,2.30
2019-05-20T05:02:03.936Z,2.60
2019-05-20T05:03:03.928Z,1.70
2019-05-20T05:04:03.918Z,2.30
2019-05-20T05:05:03.909Z,2.60
2019-05-20T05:06:03.901Z,1.90
2019-05-20T05:07:03.881Z,2.20
2019-05-20T05:08:03.871Z,2.10
2019-05-20T05:09:04.147Z,2.20
2019-05-20T05:10:03.852Z,2.20
2019-05-20T05:11:03.844Z,1.80
2019-05-20T05:12:03.830Z,2.10
2019-05-20T05:13:03.816Z,2.20
2019-05-20T05:14:03.809Z,1.90
2019-05-20T05:15:07.732Z,2.70
2019-05-20T05:16:03.782Z,2.00
2019-05-20T05:17:03.775Z,1.90
2019-05-20T05:18:03.760Z,1.60
2019-05-20T05:19:03.754Z,1.80
2019-05-20T05:20:03.739Z,1.80
2019-05-20T05:21:03.752Z,2.10
2019-05-20T05:22:03.718Z,1.90
2019-05-20T05:23:03.710Z,2.10
2019-05-20T05:24:03.699Z,2.00
2019-05-20T05:25:03.686Z,2.10
2019-05-20T05:26:03.677Z,1.90
2019-05-20T05:27:03.671Z,2.00
2019-05-20T05:28:03.654Z,2.10
2019-05-20T05:29:03.647Z,1.50
2019-05-20T05:30:03.636Z,1.70
2019-05-20T05:31:03.622Z,1.60
2019-05-20T05:32:03.605Z,2.10
2019-05-20T05:33:03.614Z,1.40
2019-05-20T05:34:03.594Z,1.70
2019-05-20T05:35:03.575Z,1.70
2019-05-20T05:36:03.562Z,1.70
2019-05-20T05:37:03.553Z,1.50
2019-05-20T05:38:03.617Z,1.70
2019-05-20T05:39:03.534Z,1.60
2019-05-20T05:40:07.737Z,1.50
2019-05-20T05:41:03.579Z,1.80
2019-05-20T05:42:03.625Z,1.80
2019-05-20T05:43:03.491Z,1.80
2019-05-20T05:44:03.484Z,1.70
2019-05-20T05:45:03.471Z,1.40
2019-05-20T05:46:03.459Z,1.50
2019-05-20T05:47:03.455Z,1.70
2019-05-20T05:48:03.445Z,1.80
2019-05-20T05:49:03.429Z,2.00
2019-05-20T05:50:03.415Z,1.60
2019-05-20T05:51:03.403Z,1.90
2019-05-20T05:52:03.397Z,1.80
2019-05-20T05:53:03.380Z,2.00
2019-05-20T05:54:03.380Z,2.10
2019-05-20T05:55:03.364Z,1.90
2019-05-20T05:56:03.350Z,1.80
2019-05-20T05:57:03.337Z,1.60
2019-05-20T05:58:03.324Z,1.40
2019-05-20T05:59:03.316Z,1.60
2019-05-20T06:00:03.313Z,1.50
2019-05-20T06:01:03.302Z,1.60
2019-05-20T06:02:03.285Z,1.90
2019-05-20T06:03:03.310Z,1.40
2019-05-20T06:04:03.258Z,1.60
2019-05-20T06:05:03.250Z,2.00
2019-05-20T06:06:12.330Z,1.60
2019-05-20T06:07:04.227Z,1.50
2019-05-20T06:08:03.226Z,1.50
2019-05-20T06:09:03.214Z,1.50
2019-05-20T06:10:03.193Z,1.70
2019-05-20T06:11:03.181Z,1.60
2019-05-20T06:12:03.173Z,1.80
2019-05-20T06:13:03.197Z,1.70
2019-05-20T06:14:03.151Z,1.50
2019-05-20T06:15:03.139Z,1.60
2019-05-20T06:16:03.131Z,1.50
2019-05-20T06:17:03.119Z,1.60
2019-05-20T06:18:03.105Z,1.60
2019-05-20T06:19:03.094Z,2.30
2019-05-20T06:20:03.090Z,1.50
2019-05-20T06:21:03.083Z,1.30
2019-05-20T06:22:03.083Z,1.70
2019-05-20T06:23:03.054Z,1.30
2019-05-20T06:24:03.042Z,1.80
2019-05-20T06:25:03.422Z,1.60
2019-05-20T06:26:03.019Z,1.60
2019-05-20T06:27:03.006Z,1.40
2019-05-20T06:28:02.994Z,1.50
2019-05-20T06:29:03.163Z,1.70
2019-05-20T06:30:02.978Z,1.90
2019-05-20T06:31:02.966Z,1.80
2019-05-20T06:32:02.962Z,2.10
2019-05-20T06:33:02.948Z,1.80
2019-05-20T06:34:02.933Z,1.40
2019-05-20T06:35:02.943Z,2.00
2019-05-20T06:36:02.969Z,2.40
2019-05-20T06:37:02.918Z,1.50
2019-05-20T06:38:02.890Z,1.90
2019-05-20T06:39:02.880Z,2.00
2019-05-20T06:40:02.863Z,1.40
2019-05-20T06:41:02.860Z,1.60
2019-05-20T06:42:02.850Z,3.20
2019-05-20T06:43:02.839Z,2.10
2019-05-20T06:44:02.823Z,2.40
2019-05-20T06:45:02.814Z,1.90
2019-05-20T06:46:02.807Z,1.80
2019-05-20T06:47:02.794Z,1.70
2019-05-20T06:48:02.782Z,1.50
2019-05-20T06:49:02.764Z,1.30
2019-05-20T06:50:02.759Z,1.50
2019-05-20T06:51:02.750Z,1.40
2019-05-20T06:52:02.730Z,1.60
2019-05-20T06:53:02.743Z,1.10
2019-05-20T06:54:02.711Z,1.40
2019-05-20T06:55:02.705Z,1.30
2019-05-20T06:56:02.693Z,1.50
2019-05-20T06:57:02.693Z,1.50
2019-05-20T06:58:02.666Z,1.70
2019-05-20T06:59:02.669Z,1.40
2019-05-20T07:00:02.656Z,1.60
2019-05-20T07:01:02.634Z,1.10
2019-05-20T07:02:02.648Z,1.30
2019-05-20T07:03:02.616Z,1.10
2019-05-20T07:04:02.610Z,1.40
2019-05-20T07:05:02.592Z,1.20
2019-05-20T07:06:02.580Z,1.50
2019-05-20T07:07:12.465Z,1.40
2019-05-20T07:08:03.560Z,1.90
2019-05-20T07:09:02.549Z,1.50
2019-05-20T07:10:02.549Z,1.50
2019-05-20T07:11:02.527Z,1.10
2019-05-20T07:12:02.552Z,1.60
2019-05-20T07:13:02.504Z,1.60
2019-05-20T07:14:02.502Z,1.90
2019-05-20T07:15:02.952Z,1.50
2019-05-20T07:16:02.480Z,1.60
2019-05-20T07:17:02.469Z,1.30
2019-05-20T07:18:02.474Z,1.40
2019-05-20T07:19:02.443Z,1.30
2019-05-20T07:20:02.431Z,1.60
2019-05-20T07:21:02.420Z,1.40
2019-05-20T07:22:02.415Z,1.30
2019-05-20T07:23:02.395Z,1.20
2019-05-20T07:24:02.382Z,1.30
2019-05-20T07:25:02.545Z,1.20
2019-05-20T07:26:02.371Z,1.40
2019-05-20T07:27:02.362Z,1.20
2019-05-20T07:28:02.360Z,1.40
2019-05-20T07:29:02.332Z,1.60
2019-05-20T07:30:02.321Z,1.50
2019-05-20T07:31:02.304Z,1.30
2019-05-20T07:32:02.305Z,1.40
2019-05-20T07:33:02.289Z,1.80
2019-05-20T07:34:02.274Z,1.30
2019-05-20T07:35:02.271Z,1.30
2019-05-20T07:36:02.253Z,1.50
2019-05-20T07:37:03.960Z,1.60
2019-05-20T07:38:02.243Z,1.50
2019-05-20T07:39:02.232Z,1.40
2019-05-20T07:40:02.277Z,1.40
2019-05-20T07:41:02.196Z,1.70
2019-05-20T07:42:02.194Z,1.50
2019-05-20T07:43:02.227Z,1.30
2019-05-20T07:44:02.323Z,1.60
2019-05-20T07:45:02.420Z,1.60
2019-05-20T07:46:02.146Z,1.40
2019-05-20T07:47:02.150Z,1.60
2019-05-20T07:48:02.135Z,1.60
2019-05-20T07:49:02.464Z,1.50
2019-05-20T07:50:02.103Z,1.60
2019-05-20T07:51:02.097Z,2.20
2019-05-20T07:52:02.088Z,2.30
2019-05-20T07:53:02.079Z,1.90
2019-05-20T07:54:02.314Z,1.40
2019-05-20T07:55:02.078Z,1.90
2019-05-20T07:56:02.270Z,1.90
2019-05-20T07:57:02.030Z,1.60
2019-05-20T07:58:02.031Z,1.70
2019-05-20T07:59:02.003Z,1.40
2019-05-20T08:00:02.012Z,2.50
2019-05-20T08:01:01.986Z,1.60
2019-05-20T08:02:01.983Z,1.20
2019-05-20T08:03:01.963Z,1.80
2019-05-20T08:04:01.981Z,1.50
2019-05-20T08:05:02.160Z,1.80
2019-05-20T08:06:01.933Z,1.60
2019-05-20T08:07:26.268Z,2.00
2019-05-20T08:08:02.913Z,1.30
2019-05-20T08:09:01.934Z,1.40
2019-05-20T08:10:02.145Z,1.20
2019-05-20T08:11:01.880Z,1.40
2019-05-20T08:12:01.874Z,1.30
2019-05-20T08:13:01.862Z,1.60
2019-05-20T08:14:01.845Z,3.50
2019-05-20T08:15:01.861Z,1.10
2019-05-20T08:16:01.846Z,1.10
2019-05-20T08:17:01.826Z,2.40
2019-05-20T08:18:01.820Z,1.10
2019-05-20T08:19:01.824Z,1.10
2019-05-20T08:20:01.803Z,1.50
2019-05-20T08:21:01.774Z,1.10
2019-05-20T08:22:01.765Z,1.30
2019-05-20T08:23:02.253Z,1.00
2019-05-20T08:24:02.172Z,1.20
2019-05-20T08:25:01.798Z,1.10
2019-05-20T08:26:01.720Z,1.20
2019-05-20T08:27:01.853Z,1.40
2019-05-20T08:28:01.700Z,1.20
2019-05-20T08:29:01.695Z,1.10
2019-05-20T08:30:01.855Z,1.30
2019-05-20T08:31:01.688Z,1.20
2019-05-20T08:32:01.663Z,1.00
2019-05-20T08:33:01.647Z,1.20
2019-05-20T08:34:01.638Z,1.20
2019-05-20T08:35:01.918Z,1.10
2019-05-20T08:36:01.671Z,1.10
2019-05-20T08:37:01.611Z,1.20
2019-05-20T08:38:01.599Z,1.40
2019-05-20T08:39:01.604Z,1.10
2019-05-20T08:40:01.631Z,1.30
2019-05-20T08:41:01.572Z,1.80
2019-05-20T08:42:01.723Z,2.30
2019-05-20T08:43:01.552Z,2.50
2019-05-20T08:44:01.535Z,1.70
2019-05-20T08:45:01.554Z,1.30
2019-05-20T08:46:01.517Z,0.90
2019-05-20T08:47:01.660Z,1.00
2019-05-20T08:48:01.501Z,1.00
2019-05-20T08:49:01.488Z,0.90
2019-05-20T08:50:02.193Z,0.90
2019-05-20T08:51:01.461Z,1.00
2019-05-20T08:52:01.461Z,1.00
2019-05-20T08:53:01.454Z,1.40
2019-05-20T08:54:01.431Z,1.30
2019-05-20T08:55:01.740Z,2.50
2019-05-20T08:56:01.442Z,1.40
2019-05-20T08:57:01.434Z,1.50
2019-05-20T08:58:01.406Z,1.10
2019-05-20T08:59:01.389Z,1.00
2019-05-20T09:00:01.373Z,1.90
2019-05-20T09:01:01.363Z,1.50
2019-05-20T09:02:01.351Z,1.70
2019-05-20T09:03:01.338Z,1.40
2019-05-20T09:04:01.338Z,2.20
2019-05-20T09:05:01.327Z,1.90
2019-05-20T09:06:01.367Z,0.90
2019-05-20T09:07:01.292Z,1.30
2019-05-20T09:08:03.482Z,1.70
2019-05-20T09:09:01.284Z,1.10
2019-05-20T09:10:01.282Z,1.10
2019-05-20T09:11:01.258Z,1.70
2019-05-20T09:12:01.251Z,1.00
2019-05-20T09:13:01.235Z,1.20
2019-05-20T09:14:01.218Z,1.30
2019-05-20T09:15:01.209Z,2.00
2019-05-20T09:16:01.204Z,1.80
2019-05-20T09:17:01.197Z,1.60
2019-05-20T09:18:01.182Z,1.70
2019-05-20T09:19:01.192Z,1.60
2019-05-20T09:20:01.191Z,1.70
2019-05-20T09:21:01.147Z,1.40
2019-05-20T09:22:01.173Z,1.70
2019-05-20T09:23:02.755Z,1.30
2019-05-20T09:24:01.116Z,1.50
2019-05-20T09:25:01.166Z,1.50
2019-05-20T09:26:01.112Z,3.00
2019-05-20T09:27:01.143Z,4.00
2019-05-20T09:28:01.108Z,1.60
2019-05-20T09:29:01.075Z,1.70
2019-05-20T09:30:01.057Z,1.60
2019-05-20T09:31:01.050Z,1.90
2019-05-20T09:32:01.051Z,1.60
2019-05-20T09:33:01.038Z,1.90
2019-05-20T09:34:01.014Z,3.40
2019-05-20T09:35:01.000Z,1.70
2019-05-20T09:36:01.009Z,1.90
2019-05-20T09:37:00.986Z,1.90
2019-05-20T09:38:00.981Z,2.90
2019-05-20T09:39:00.964Z,2.80
2019-05-20T09:40:00.984Z,1.40
2019-05-20T09:41:00.940Z,1.50
2019-05-20T09:42:00.922Z,1.50
2019-05-20T09:43:00.922Z,1.70
2019-05-20T09:44:00.910Z,2.50
2019-05-20T09:45:03.055Z,2.40
2019-05-20T09:46:07.549Z,1.90
2019-05-20T09:47:01.870Z,1.70
2019-05-20T09:48:00.889Z,1.20
2019-05-20T09:49:00.860Z,1.20
2019-05-20T09:50:00.846Z,1.70
2019-05-20T09:51:00.833Z,2.60
2019-05-20T09:52:00.866Z,1.70
2019-05-20T09:53:00.818Z,1.40
2019-05-20T09:54:00.798Z,1.60
2019-05-20T09:55:00.797Z,1.50
2019-05-20T09:56:00.804Z,1.90
2019-05-20T09:57:00.776Z,1.30
2019-05-20T09:58:00.770Z,2.10
2019-05-20T09:59:00.745Z,3.30
2019-05-20T10:00:00.736Z,2.60
2019-05-20T10:01:00.741Z,2.20
2019-05-20T10:02:00.722Z,1.20
2019-05-20T10:03:00.787Z,1.30
2019-05-20T10:04:00.699Z,1.00
2019-05-20T10:05:00.698Z,0.80
2019-05-20T10:06:00.694Z,1.10
2019-05-20T10:07:00.676Z,0.90
2019-05-20T10:08:00.657Z,1.40
2019-05-20T10:09:00.649Z,1.60
2019-05-20T10:10:00.641Z,2.10
2019-05-20T10:11:01.454Z,1.60
2019-05-20T10:12:00.613Z,1.40
2019-05-20T10:13:00.650Z,1.80
2019-05-20T10:14:00.600Z,2.50
2019-05-20T10:15:00.595Z,1.70
2019-05-20T10:16:00.579Z,1.50
2019-05-20T10:17:00.565Z,1.40
2019-05-20T10:18:00.561Z,1.00
2019-05-20T10:19:00.542Z,0.90
2019-05-20T10:20:00.541Z,1.00
2019-05-20T10:21:00.522Z,1.10
2019-05-20T10:22:00.522Z,1.10
2019-05-20T10:23:00.508Z,1.30
2019-05-20T10:24:00.497Z,1.10
2019-05-20T10:25:00.484Z,1.20
2019-05-20T10:26:00.469Z,1.20
2019-05-20T10:27:00.460Z,1.30
2019-05-20T10:28:00.454Z,1.10
2019-05-20T10:29:00.448Z,1.30
2019-05-20T10:30:00.432Z,1.10
2019-05-20T10:31:00.419Z,1.30
2019-05-20T10:32:00.413Z,1.30
2019-05-20T10:33:00.396Z,1.10
2019-05-20T10:34:00.386Z,1.10
2019-05-20T10:35:00.375Z,1.20
2019-05-20T10:36:00.364Z,1.10
2019-05-20T10:37:00.363Z,1.00
2019-05-20T10:38:00.405Z,1.10
2019-05-20T10:39:00.347Z,1.00
2019-05-20T10:40:00.323Z,1.00
2019-05-20T10:41:00.321Z,1.40
2019-05-20T10:42:00.302Z,1.30
2019-05-20T10:43:00.295Z,1.30
2019-05-20T10:44:00.278Z,1.40
2019-05-20T10:45:00.270Z,1.20
2019-05-20T10:46:00.260Z,1.50
2019-05-20T10:47:00.254Z,1.30
2019-05-20T10:48:00.239Z,1.70
2019-05-20T10:49:00.228Z,1.60
2019-05-20T10:50:00.236Z,1.70
2019-05-20T10:51:00.204Z,1.70
2019-05-20T10:52:00.200Z,1.60
2019-05-20T10:53:00.187Z,2.90
2019-05-20T10:54:00.174Z,2.10
2019-05-20T10:55:00.161Z,1.80
2019-05-20T10:56:00.458Z,2.00
2019-05-20T10:57:00.158Z,2.00
2019-05-20T10:58:00.132Z,2.20
2019-05-20T10:59:00.127Z,1.90
2019-05-20T11:00:00.118Z,1.80
2019-05-20T11:01:03.502Z,1.70
2019-05-20T11:02:00.090Z,2.00
2019-05-20T11:03:00.085Z,2.30
2019-05-20T11:04:00.068Z,2.30
2019-05-20T11:05:00.051Z,2.00
2019-05-20T11:06:00.043Z,1.80
2019-05-20T11:07:00.043Z,1.80
2019-05-20T11:08:00.046Z,1.90
2019-05-20T11:09:13.015Z,2.10
2019-05-20T11:10:00.998Z,1.90
2019-05-20T11:10:59.990Z,1.80
2019-05-20T11:11:59.979Z,2.30
2019-05-20T11:12:59.967Z,2.20
2019-05-20T11:13:59.957Z,2.30
2019-05-20T11:14:59.946Z,2.50
2019-05-20T11:15:59.938Z,2.20
2019-05-20T11:16:59.927Z,2.00
2019-05-20T11:17:59.917Z,1.80
2019-05-20T11:18:59.917Z,1.70
2019-05-20T11:19:59.893Z,2.40
2019-05-20T11:20:59.882Z,2.40
2019-05-20T11:21:59.878Z,2.10
2019-05-20T11:23:01.207Z,1.90
2019-05-20T11:23:59.851Z,1.90
2019-05-20T11:24:59.847Z,1.90
2019-05-20T11:25:59.827Z,1.70
2019-05-20T11:26:59.819Z,2.30
2019-05-20T11:27:59.810Z,2.20
2019-05-20T11:28:59.793Z,3.10
2019-05-20T11:29:59.784Z,2.50
2019-05-20T11:30:59.781Z,2.90
2019-05-20T11:31:59.772Z,2.50
2019-05-20T11:32:59.749Z,2.70
2019-05-20T11:33:59.741Z,2.30
2019-05-20T11:34:59.732Z,1.80
2019-05-20T11:35:59.721Z,1.90
2019-05-20T11:36:59.706Z,1.60
2019-05-20T11:37:59.709Z,1.40
2019-05-20T11:38:59.695Z,1.30
2019-05-20T11:39:59.673Z,1.80
2019-05-20T11:40:59.664Z,2.10
2019-05-20T11:41:59.655Z,1.90
2019-05-20T11:42:59.652Z,1.70
2019-05-20T11:43:59.635Z,2.20
2019-05-20T11:44:59.621Z,2.00
2019-05-20T11:45:59.612Z,2.10
2019-05-20T11:46:59.601Z,1.40
2019-05-20T11:47:59.601Z,1.50
2019-05-20T11:48:59.580Z,1.50
2019-05-20T11:49:59.564Z,1.30
2019-05-20T11:50:59.554Z,1.60
2019-05-20T11:51:59.540Z,1.80
2019-05-20T11:52:59.571Z,1.80
2019-05-20T11:53:59.523Z,1.50
2019-05-20T11:54:59.517Z,2.00
2019-05-20T11:55:59.500Z,1.70
2019-05-20T11:56:59.484Z,1.80
2019-05-20T11:58:14.449Z,2.10
2019-05-20T11:59:00.467Z,1.50
2019-05-20T11:59:59.454Z,4.50
2019-05-20T12:00:59.445Z,1.70
2019-05-20T12:02:03.708Z,1.50
2019-05-20T12:02:59.431Z,1.30
2019-05-20T12:03:59.414Z,1.30
2019-05-20T12:04:59.404Z,1.40
2019-05-20T12:05:59.398Z,1.40
2019-05-20T12:06:59.381Z,3.30
2019-05-20T12:07:59.369Z,1.40
2019-05-20T12:08:59.365Z,1.00
2019-05-20T12:09:59.348Z,24.20
2019-05-20T12:10:59.340Z,1.10
2019-05-20T12:11:59.327Z,1.20
2019-05-20T12:12:59.313Z,0.90
2019-05-20T12:13:59.308Z,1.00
2019-05-20T12:14:59.294Z,1.00
2019-05-20T12:15:59.283Z,1.10
2019-05-20T12:16:59.271Z,1.10
2019-05-20T12:17:59.265Z,0.90
2019-05-20T12:18:59.251Z,0.90
2019-05-20T12:19:59.248Z,1.10
2019-05-20T12:20:59.228Z,1.00
2019-05-20T12:21:59.225Z,1.00
2019-05-20T12:22:59.218Z,0.90
2019-05-20T12:23:59.220Z,1.10
2019-05-20T12:24:59.194Z,1.10
2019-05-20T12:25:59.187Z,0.90
2019-05-20T12:26:59.170Z,1.10
2019-05-20T12:27:59.159Z,1.00
2019-05-20T12:28:59.154Z,0.90
2019-05-20T12:29:59.158Z,1.30
2019-05-20T12:30:59.127Z,1.10
2019-05-20T12:32:03.298Z,1.10
2019-05-20T12:33:17.706Z,1.10
2019-05-20T12:34:00.094Z,0.90
2019-05-20T12:34:59.090Z,1.10
2019-05-20T12:35:59.104Z,0.90
2019-05-20T12:36:59.068Z,1.10
2019-05-20T12:37:59.130Z,1.20
2019-05-20T12:38:59.046Z,1.10
2019-05-20T12:40:06.883Z,1.30
2019-05-20T12:41:00.058Z,1.30
2019-05-20T12:41:59.012Z,1.30
2019-05-20T12:42:59.001Z,1.20
2019-05-20T12:44:10.853Z,1.20
2019-05-20T12:44:59.984Z,1.20
2019-05-20T12:45:58.979Z,1.10
2019-05-20T12:46:58.964Z,1.10
2019-05-20T12:47:58.953Z,1.40
2019-05-20T12:48:59.071Z,1.20
2019-05-20T12:49:58.931Z,1.20
2019-05-20T12:50:58.940Z,1.20
2019-05-20T12:51:58.912Z,1.30
2019-05-20T12:52:58.905Z,1.10
2019-05-20T12:53:58.917Z,1.10
2019-05-20T12:55:08.216Z,1.10
2019-05-20T12:55:59.872Z,1.20
2019-05-20T12:56:58.882Z,0.90
2019-05-20T12:57:58.857Z,1.10
2019-05-20T12:58:58.849Z,1.20
2019-05-20T12:59:59.056Z,1.30
2019-05-20T13:00:58.828Z,1.00
2019-05-20T13:01:58.847Z,1.20
2019-05-20T13:02:58.811Z,1.20
2019-05-20T13:03:58.794Z,1.20
2019-05-20T13:04:58.786Z,1.10
2019-05-20T13:05:58.776Z,1.10
2019-05-20T13:06:58.785Z,1.00
2019-05-20T13:07:58.786Z,1.20
2019-05-20T13:08:58.748Z,1.20
2019-05-20T13:10:02.803Z,1.00
2019-05-20T13:10:58.749Z,1.00
2019-05-20T13:11:58.719Z,1.40
2019-05-20T13:12:58.717Z,1.30
2019-05-20T13:13:58.787Z,1.10
2019-05-20T13:14:58.695Z,1.00
2019-05-20T13:15:58.688Z,1.10
2019-05-20T13:16:58.678Z,1.20